createdAt,value
2023-03-02T00:00:39.877Z,0.353
2023-03-02T00:01:40.501Z,0.556
2023-03-02T00:02:40.370Z,0.684
2023-03-02T00:03:40.328Z,0.705
2023-03-02T00:04:40.199Z,0.607
2023-03-02T00:05:39.808Z,0.620
2023-03-02T00:06:40.398Z,0.593
2023-03-02T00:07:40.108Z,0.604
2023-03-02T00:08:39.679Z,0.460
2023-03-02T00:09:40.393Z,0.278
2023-03-02T00:10:40.126Z,0.195
2023-03-02T00:11:39.765Z,0.174
2023-03-02T00:12:40.412Z,0.070
2023-03-02T00:13:40.010Z,-0.008
2023-03-02T00:14:39.817Z,-0.120
2023-03-02T00:15:40.483Z,-0.216
2023-03-02T00:16:40.480Z,-0.283
2023-03-02T00:17:40.069Z,-0.259
2023-03-02T00:18:39.670Z,-0.256
2023-03-02T00:19:40.333Z,-0.456
2023-03-02T00:20:39.968Z,-0.603
2023-03-02T00:21:40.617Z,-0.624
2023-03-02T00:22:40.194Z,-0.662
2023-03-02T00:23:39.788Z,-0.753
2023-03-02T00:24:40.464Z,-0.851
2023-03-02T00:25:40.092Z,-0.849
2023-03-02T00:26:39.714Z,-0.806
2023-03-02T00:27:40.344Z,-0.934
2023-03-02T00:28:39.944Z,-0.961
2023-03-02T00:29:40.624Z,-0.881
2023-03-02T00:30:40.269Z,-0.873
2023-03-02T00:31:40.125Z,-0.803
2023-03-02T00:32:40.043Z,-0.924
2023-03-02T00:33:39.652Z,-0.851
2023-03-02T00:34:40.453Z,-0.921
2023-03-02T00:35:40.142Z,-0.713
2023-03-02T00:36:40.387Z,-0.657
2023-03-02T00:37:39.693Z,-0.718
2023-03-02T00:38:40.328Z,-0.726
2023-03-02T00:39:40.050Z,-0.691
2023-03-02T00:40:39.761Z,-0.742
2023-03-02T00:41:40.637Z,-0.795
2023-03-02T00:42:40.338Z,-0.731
2023-03-02T00:43:39.921Z,-0.838
2023-03-02T00:44:40.601Z,-0.867
2023-03-02T00:45:40.263Z,-0.881
2023-03-02T00:46:40.133Z,-0.940
2023-03-02T00:47:41.081Z,-0.977
2023-03-02T00:48:40.106Z,-1.041
2023-03-02T00:49:39.809Z,-1.073
2023-03-02T00:50:40.497Z,-1.070
2023-03-02T00:51:40.183Z,-1.156
2023-03-02T00:52:39.812Z,-1.233
2023-03-02T00:53:40.452Z,-1.193
2023-03-02T00:54:40.072Z,-1.044
2023-03-02T00:55:39.760Z,-1.167
2023-03-02T00:56:39.665Z,-1.084
2023-03-02T00:57:40.271Z,-0.670
2023-03-02T00:58:39.916Z,-0.555
2023-03-02T00:59:40.596Z,-0.649
2023-03-02T01:00:40.224Z,-0.496
2023-03-02T01:01:39.931Z,-0.432
2023-03-02T01:02:39.920Z,-0.074
2023-03-02T01:03:40.043Z,-0.053
2023-03-02T01:04:39.748Z,-0.120
2023-03-02T01:05:40.364Z,-0.117
2023-03-02T01:06:40.036Z,-0.026
2023-03-02T01:07:39.649Z,0.321
2023-03-02T01:08:40.313Z,0.369
2023-03-02T01:09:40.050Z,0.337
2023-03-02T01:10:39.665Z,0.233
2023-03-02T01:11:40.289Z,0.297
2023-03-02T01:12:39.920Z,0.796
2023-03-02T01:13:40.586Z,0.623
2023-03-02T01:14:40.225Z,0.692
2023-03-02T01:15:39.900Z,0.676
2023-03-02T01:16:40.671Z,0.716
2023-03-02T01:17:40.265Z,0.585
2023-03-02T01:18:39.945Z,0.540
2023-03-02T01:19:39.711Z,0.318
2023-03-02T01:20:40.409Z,0.123
2023-03-02T01:21:39.993Z,-0.090
2023-03-02T01:22:40.620Z,-0.267
2023-03-02T01:23:40.241Z,-0.299
2023-03-02T01:24:39.856Z,-0.328
2023-03-02T01:25:40.485Z,-0.347
2023-03-02T01:26:40.085Z,-0.373
2023-03-02T01:27:39.796Z,-0.368
2023-03-02T01:28:40.392Z,-0.331
2023-03-02T01:29:40.046Z,-0.352
2023-03-02T01:30:39.741Z,-0.365
2023-03-02T01:31:40.393Z,-0.291
2023-03-02T01:32:40.491Z,-0.240
2023-03-02T01:33:40.168Z,-0.227
2023-03-02T01:34:39.900Z,-0.291
2023-03-02T01:35:40.639Z,-0.253
2023-03-02T01:36:40.449Z,-0.256
2023-03-02T01:37:40.048Z,-0.163
2023-03-02T01:38:39.833Z,-0.171
2023-03-02T01:39:40.624Z,-0.205
2023-03-02T01:40:40.397Z,-0.144
2023-03-02T01:41:40.116Z,-0.171
2023-03-02T01:42:39.777Z,-0.176
2023-03-02T01:43:40.394Z,-0.064
2023-03-02T01:44:40.081Z,-0.157
2023-03-02T01:45:39.891Z,-0.197
2023-03-02T01:46:39.765Z,-0.181
2023-03-02T01:47:40.396Z,-0.267
2023-03-02T01:48:40.024Z,-0.320
2023-03-02T01:49:39.648Z,-0.406
2023-03-02T01:50:40.239Z,-0.462
2023-03-02T01:51:39.852Z,-0.467
2023-03-02T01:52:40.564Z,-0.502
2023-03-02T01:53:40.236Z,-0.467
2023-03-02T01:54:39.829Z,-0.440
2023-03-02T01:55:40.496Z,-0.339
2023-03-02T01:56:40.072Z,-0.368
2023-03-02T01:57:39.760Z,-0.349
2023-03-02T01:58:40.568Z,-0.325
2023-03-02T01:59:40.200Z,-0.189
2023-03-02T02:00:39.857Z,-0.074
2023-03-02T02:01:39.851Z,-0.074
2023-03-02T02:02:40.500Z,-0.144
2023-03-02T02:03:40.209Z,-0.074
2023-03-02T02:04:39.988Z,-0.077
2023-03-02T02:05:40.648Z,-0.144
2023-03-02T02:06:40.317Z,-0.197
2023-03-02T02:07:39.903Z,-0.144
2023-03-02T02:08:40.810Z,-0.213
2023-03-02T02:09:40.444Z,-0.245
2023-03-02T02:10:40.136Z,-0.237
2023-03-02T02:11:39.822Z,-0.237
2023-03-02T02:12:40.489Z,-0.309
2023-03-02T02:13:40.132Z,-0.189
2023-03-02T02:14:39.795Z,-0.291
2023-03-02T02:15:40.474Z,-0.419
2023-03-02T02:16:40.415Z,-0.422
2023-03-02T02:17:40.312Z,-0.456
2023-03-02T02:18:39.965Z,-0.603
2023-03-02T02:19:40.613Z,-0.595
2023-03-02T02:20:40.280Z,-0.699
2023-03-02T02:21:39.841Z,-0.646
2023-03-02T02:22:40.488Z,-0.683
2023-03-02T02:23:40.200Z,-0.587
2023-03-02T02:24:39.843Z,-0.590
2023-03-02T02:25:40.536Z,-0.721
2023-03-02T02:26:40.145Z,-0.662
2023-03-02T02:27:39.827Z,-0.737
2023-03-02T02:28:40.489Z,-0.795
2023-03-02T02:29:40.180Z,-0.715
2023-03-02T02:30:39.880Z,-0.766
2023-03-02T02:31:40.679Z,-0.713
2023-03-02T02:32:40.834Z,-0.747
2023-03-02T02:33:40.697Z,-0.761
2023-03-02T02:34:40.670Z,-0.841
2023-03-02T02:35:40.357Z,-0.771
2023-03-02T02:36:40.460Z,-0.849
2023-03-02T02:37:40.161Z,-0.932
2023-03-02T02:38:39.814Z,-0.881
2023-03-02T02:39:40.469Z,-0.921
2023-03-02T02:40:40.122Z,-0.945
2023-03-02T02:41:39.927Z,-0.961
2023-03-02T02:42:40.657Z,-1.009
2023-03-02T02:43:40.328Z,-1.030
2023-03-02T02:44:40.096Z,-1.033
2023-03-02T02:45:40.079Z,-1.073
2023-03-02T02:46:40.010Z,-1.020
2023-03-02T02:47:39.708Z,-1.046
2023-03-02T02:48:40.380Z,-1.073
2023-03-02T02:49:40.035Z,-1.175
2023-03-02T02:50:39.781Z,-1.118
2023-03-02T02:51:40.396Z,-1.118
2023-03-02T02:52:40.168Z,-1.030
2023-03-02T02:53:39.809Z,-1.017
2023-03-02T02:54:40.516Z,-0.964
2023-03-02T02:55:40.136Z,-0.932
2023-03-02T02:56:39.779Z,-0.897
2023-03-02T02:57:40.372Z,-0.916
2023-03-02T02:58:40.013Z,-0.929
2023-03-02T02:59:39.668Z,-0.926
2023-03-02T03:00:40.365Z,-0.961
2023-03-02T03:01:40.264Z,-0.945
2023-03-02T03:02:40.085Z,-0.982
2023-03-02T03:03:39.712Z,-0.961
2023-03-02T03:04:40.584Z,-0.974
2023-03-02T03:05:40.658Z,-0.865
2023-03-02T03:06:40.245Z,-0.956
2023-03-02T03:07:40.029Z,-0.865
2023-03-02T03:08:39.649Z,-0.833
2023-03-02T03:09:40.382Z,-0.822
2023-03-02T03:10:40.422Z,-0.750
2023-03-02T03:11:40.165Z,-0.670
2023-03-02T03:12:39.879Z,-0.640
2023-03-02T03:13:40.581Z,-0.622
2023-03-02T03:14:40.215Z,-0.627
2023-03-02T03:15:39.851Z,-0.670
2023-03-02T03:16:40.618Z,-0.566
2023-03-02T03:17:40.633Z,-0.451
2023-03-02T03:18:40.342Z,-0.438
2023-03-02T03:19:40.001Z,-0.536
2023-03-02T03:20:39.708Z,-0.528
2023-03-02T03:21:40.434Z,-0.592
2023-03-02T03:22:40.232Z,-0.657
2023-03-02T03:23:39.996Z,-0.640
2023-03-02T03:24:39.700Z,-0.616
2023-03-02T03:25:41.768Z,-0.598
2023-03-02T03:26:40.456Z,-0.491
2023-03-02T03:27:40.388Z,-0.379
2023-03-02T03:28:40.043Z,-0.325
2023-03-02T03:29:39.701Z,-0.406
2023-03-02T03:30:40.358Z,-0.430
2023-03-02T03:31:40.366Z,-0.275
2023-03-02T03:32:40.513Z,-0.331
2023-03-02T03:33:40.309Z,-0.339
2023-03-02T03:34:40.197Z,-0.253
2023-03-02T03:35:40.252Z,-0.280
2023-03-02T03:36:40.065Z,-0.251
2023-03-02T03:37:39.705Z,-0.146
2023-03-02T03:38:40.352Z,-0.064
2023-03-02T03:39:40.085Z,-0.072
2023-03-02T03:40:39.723Z,-0.208
2023-03-02T03:41:40.328Z,-0.117
2023-03-02T03:42:40.050Z,-0.026
2023-03-02T03:43:39.651Z,-0.032
2023-03-02T03:44:40.269Z,-0.114
2023-03-02T03:45:40.168Z,0.027
2023-03-02T03:46:39.895Z,0.054
2023-03-02T03:47:40.568Z,-0.053
2023-03-02T03:48:40.222Z,-0.122
2023-03-02T03:49:39.959Z,-0.053
2023-03-02T03:52:01.313Z,-0.024
2023-03-02T03:52:54.345Z,0.051
2023-03-02T03:53:54.294Z,-0.090
2023-03-02T03:54:54.273Z,-0.034
2023-03-02T03:55:54.188Z,-0.050
2023-03-02T03:56:54.112Z,-0.008
2023-03-02T03:57:54.110Z,-0.053
2023-03-02T03:58:54.286Z,0.019
2023-03-02T03:59:54.294Z,-0.133
2023-03-02T04:00:54.580Z,-0.221
2023-03-02T04:01:54.714Z,-0.128
2023-03-02T04:02:53.993Z,-0.203
2023-03-02T04:03:54.142Z,-0.229
2023-03-02T04:04:54.205Z,-0.208
2023-03-02T04:05:54.407Z,-0.157
2023-03-02T04:06:54.357Z,-0.240
2023-03-02T04:07:54.288Z,-0.325
2023-03-02T04:08:54.218Z,-0.379
2023-03-02T04:09:54.216Z,-0.470
2023-03-02T04:10:54.250Z,-0.368
2023-03-02T04:11:54.173Z,-0.499
2023-03-02T04:12:54.186Z,-0.713
2023-03-02T04:13:54.106Z,-0.758
2023-03-02T04:14:54.093Z,-1.017
2023-03-02T04:15:54.151Z,-1.006
2023-03-02T04:16:57.257Z,-1.183
2023-03-02T04:17:57.264Z,-1.169
2023-03-02T04:18:56.965Z,-1.151
2023-03-02T04:19:53.894Z,-1.175
2023-03-02T04:20:53.869Z,-1.231
2023-03-02T04:21:53.885Z,-1.239
2023-03-02T04:22:53.996Z,-1.383
2023-03-02T04:23:53.947Z,-1.367
2023-03-02T04:24:53.868Z,-1.361
2023-03-02T04:25:53.820Z,-1.423
2023-03-02T04:26:53.771Z,-1.420
2023-03-02T04:27:54.686Z,-1.436
2023-03-02T04:28:54.786Z,-1.447
2023-03-02T04:29:54.729Z,-1.420
2023-03-02T04:30:54.870Z,-1.394
2023-03-02T04:31:54.093Z,-1.402
2023-03-02T04:32:54.251Z,-1.396
2023-03-02T04:33:54.194Z,-1.442
2023-03-02T04:34:54.110Z,-1.423
2023-03-02T04:35:54.087Z,-1.450
2023-03-02T04:36:54.545Z,-1.466
2023-03-02T04:37:54.506Z,-1.479
2023-03-02T04:38:54.458Z,-1.487
2023-03-02T04:39:54.390Z,-1.463
2023-03-02T04:40:54.306Z,-1.450
2023-03-02T04:41:54.317Z,-1.426
2023-03-02T04:42:54.352Z,-1.415
2023-03-02T04:43:54.277Z,-1.410
2023-03-02T04:44:54.233Z,-1.426
2023-03-02T04:45:54.257Z,-1.460
2023-03-02T04:46:54.560Z,-1.500
2023-03-02T04:47:53.989Z,-1.500
2023-03-02T04:48:53.908Z,-1.543
2023-03-02T04:49:53.852Z,-1.548
2023-03-02T04:50:54.730Z,-1.543
2023-03-02T04:51:54.663Z,-1.455
2023-03-02T04:52:54.633Z,-1.514
2023-03-02T04:53:54.553Z,-1.554
2023-03-02T04:54:54.541Z,-1.540
2023-03-02T04:55:54.552Z,-1.647
2023-03-02T04:56:54.497Z,-1.583
2023-03-02T04:57:54.527Z,-1.548
2023-03-02T04:58:54.514Z,-1.588
2023-03-02T04:59:54.483Z,-1.612
2023-03-02T05:00:54.430Z,-1.711
2023-03-02T05:01:54.396Z,-1.719
2023-03-02T05:02:54.552Z,-1.671
2023-03-02T05:03:54.483Z,-1.735
2023-03-02T05:04:54.662Z,-1.762
2023-03-02T05:05:53.843Z,-1.770
2023-03-02T05:06:53.773Z,-1.677
2023-03-02T05:07:54.770Z,-1.714
2023-03-02T05:08:54.753Z,-1.789
2023-03-02T05:09:54.713Z,-1.650
2023-03-02T05:10:54.767Z,-1.602
2023-03-02T05:11:54.620Z,-1.711
2023-03-02T05:12:54.634Z,-1.658
2023-03-02T05:13:54.542Z,-1.698
2023-03-02T05:14:54.509Z,-1.653
2023-03-02T05:15:54.447Z,-1.669
2023-03-02T05:16:54.882Z,-1.653
2023-03-02T05:17:53.813Z,-1.629
2023-03-02T05:18:53.770Z,-1.572
2023-03-02T05:19:54.142Z,-1.623
2023-03-02T05:20:54.001Z,-1.594
2023-03-02T05:21:54.226Z,-1.586
2023-03-02T05:22:54.321Z,-1.687
2023-03-02T05:23:54.199Z,-1.698
2023-03-02T05:24:54.281Z,-1.714
2023-03-02T05:25:54.466Z,-1.674
2023-03-02T05:26:54.426Z,-1.725
2023-03-02T05:27:54.396Z,-1.815
2023-03-02T05:28:54.318Z,-1.778
2023-03-02T05:29:54.290Z,-1.938
2023-03-02T05:30:54.425Z,-1.992
2023-03-02T05:31:54.610Z,-1.685
2023-03-02T05:32:54.014Z,-1.546
2023-03-02T05:33:53.902Z,-0.443
2023-03-02T05:34:53.894Z,-0.227
2023-03-02T05:35:54.653Z,0.185
2023-03-02T05:36:54.610Z,0.500
2023-03-02T05:37:54.653Z,0.369
2023-03-02T05:38:54.638Z,0.585
2023-03-02T05:39:54.623Z,0.972
2023-03-02T05:40:54.634Z,1.397
2023-03-02T05:41:54.610Z,1.437
2023-03-02T05:42:54.625Z,1.528
2023-03-02T05:43:54.538Z,1.715
2023-03-02T05:44:54.493Z,1.816
2023-03-02T05:45:54.487Z,1.819
2023-03-02T05:46:54.742Z,1.854
2023-03-02T05:47:53.925Z,1.854
2023-03-02T05:48:53.870Z,1.976
2023-03-02T05:49:53.853Z,1.928
2023-03-02T05:50:54.793Z,1.854
2023-03-02T05:51:54.722Z,1.846
2023-03-02T05:52:54.640Z,1.936
2023-03-02T05:53:54.606Z,1.928
2023-03-02T05:54:54.553Z,1.888
2023-03-02T05:55:54.392Z,1.926
2023-03-02T05:56:54.380Z,2.027
2023-03-02T05:57:54.285Z,2.035
2023-03-02T05:58:54.234Z,2.000
2023-03-02T05:59:54.177Z,1.934
2023-03-02T06:00:54.118Z,1.942
2023-03-02T06:01:54.399Z,1.875
2023-03-02T06:02:54.639Z,1.864
2023-03-02T06:03:53.849Z,1.950
2023-03-02T06:04:53.801Z,1.854
2023-03-02T06:05:54.644Z,1.760
2023-03-02T06:06:54.120Z,1.822
2023-03-02T06:07:54.048Z,1.768
2023-03-02T06:08:54.136Z,1.651
2023-03-02T06:09:54.126Z,1.896
2023-03-02T06:10:54.090Z,1.768
2023-03-02T06:11:54.086Z,1.627
2023-03-02T06:12:54.060Z,1.653
2023-03-02T06:13:54.052Z,1.656
2023-03-02T06:14:54.050Z,1.675
2023-03-02T06:15:54.177Z,1.589
2023-03-02T06:16:54.691Z,1.482
2023-03-02T06:17:54.719Z,1.304
2023-03-02T06:18:55.399Z,1.151
2023-03-02T06:19:54.342Z,1.181
2023-03-02T06:20:54.227Z,1.290
2023-03-02T06:21:54.333Z,1.197
2023-03-02T06:22:54.246Z,0.983
2023-03-02T06:23:54.215Z,0.956
2023-03-02T06:24:54.145Z,1.309
2023-03-02T06:25:54.061Z,1.306
2023-03-02T06:26:54.439Z,1.047
2023-03-02T06:27:54.293Z,0.999
2023-03-02T06:28:59.150Z,1.699
2023-03-02T06:29:54.208Z,2.078
2023-03-02T06:30:54.173Z,2.292
2023-03-02T06:31:54.142Z,2.390
2023-03-02T06:32:54.404Z,2.497
2023-03-02T06:33:54.356Z,2.537
2023-03-02T06:34:54.275Z,2.593
2023-03-02T06:35:54.852Z,2.636
2023-03-02T06:36:54.375Z,2.759
2023-03-02T06:37:54.352Z,2.836
2023-03-02T06:38:54.258Z,2.887
2023-03-02T06:39:54.303Z,2.991
2023-03-02T06:40:54.574Z,2.860
2023-03-02T06:41:54.561Z,2.996
2023-03-02T06:42:54.661Z,3.007
2023-03-02T06:43:54.634Z,3.061
2023-03-02T06:44:54.501Z,3.061
2023-03-02T06:45:54.640Z,3.053
2023-03-02T06:46:53.817Z,3.125
2023-03-02T06:47:54.749Z,3.178
2023-03-02T06:48:54.151Z,3.183
2023-03-02T06:49:54.056Z,3.226
2023-03-02T06:50:54.061Z,3.210
2023-03-02T06:51:53.905Z,3.277
2023-03-02T06:52:53.816Z,3.336
2023-03-02T06:53:53.826Z,3.386
2023-03-02T06:54:54.767Z,3.426
2023-03-02T06:55:54.681Z,3.448
2023-03-02T06:56:54.932Z,3.474
2023-03-02T06:57:54.008Z,3.499
2023-03-02T06:58:54.089Z,3.528
2023-03-02T06:59:54.089Z,3.515
2023-03-02T07:00:54.260Z,3.555
2023-03-02T07:01:54.509Z,3.584
2023-03-02T07:02:54.496Z,3.637
2023-03-02T07:03:54.526Z,3.717
2023-03-02T07:04:54.491Z,3.728
2023-03-02T07:05:54.490Z,3.709
2023-03-02T07:06:54.558Z,3.728
2023-03-02T07:07:54.471Z,3.819
2023-03-02T07:08:54.462Z,3.840
2023-03-02T07:09:54.352Z,3.904
2023-03-02T07:10:54.318Z,4.059
2023-03-02T07:11:54.268Z,4.142
2023-03-02T07:12:54.291Z,4.046
2023-03-02T07:13:54.364Z,4.129
2023-03-02T07:14:54.406Z,4.222
2023-03-02T07:15:54.582Z,4.185
2023-03-02T07:16:54.693Z,4.206
2023-03-02T07:17:54.717Z,4.107
2023-03-02T07:18:54.733Z,4.238
2023-03-02T07:19:56.068Z,4.246
2023-03-02T07:20:54.101Z,4.345
2023-03-02T07:21:54.029Z,4.358
2023-03-02T07:22:54.009Z,4.262
2023-03-02T07:23:53.988Z,4.262
2023-03-02T07:24:53.856Z,4.358
2023-03-02T07:25:53.849Z,4.457
2023-03-02T07:26:54.777Z,4.406
2023-03-02T07:27:54.757Z,4.396
2023-03-02T07:28:54.737Z,4.422
2023-03-02T07:29:54.657Z,4.454
2023-03-02T07:30:54.657Z,4.609
2023-03-02T07:31:54.710Z,4.692
2023-03-02T07:32:54.634Z,4.772
2023-03-02T07:33:54.645Z,4.791
2023-03-02T07:34:54.557Z,4.932
2023-03-02T07:35:54.717Z,5.018
2023-03-02T07:36:54.709Z,5.125
2023-03-02T07:37:54.722Z,5.143
2023-03-02T07:38:54.682Z,5.098
2023-03-02T07:39:54.601Z,5.106
2023-03-02T07:40:54.581Z,5.093
2023-03-02T07:41:54.482Z,5.186
2023-03-02T07:42:54.456Z,5.256
2023-03-02T07:43:54.442Z,5.127
2023-03-02T07:44:54.364Z,4.989
2023-03-02T07:45:54.396Z,5.077
2023-03-02T07:46:54.530Z,5.181
2023-03-02T07:47:54.516Z,5.459
2023-03-02T07:48:54.503Z,5.373
2023-03-02T07:49:54.386Z,5.517
2023-03-02T07:50:54.361Z,5.394
2023-03-02T07:51:54.244Z,5.365
2023-03-02T07:52:54.177Z,5.194
2023-03-02T07:53:54.077Z,5.277
2023-03-02T07:54:54.040Z,5.098
2023-03-02T07:55:53.928Z,5.200
2023-03-02T07:56:53.912Z,5.338
2023-03-02T07:57:53.808Z,5.469
2023-03-02T07:58:54.843Z,5.579
2023-03-02T07:59:53.805Z,5.726
2023-03-02T08:00:54.755Z,5.691
2023-03-02T08:01:54.988Z,5.672
2023-03-02T08:02:54.306Z,5.560
2023-03-02T08:03:54.566Z,5.485
2023-03-02T08:04:54.598Z,5.469
2023-03-02T08:05:54.698Z,5.515
2023-03-02T08:06:54.642Z,5.496
2023-03-02T08:07:54.794Z,5.517
2023-03-02T08:08:54.853Z,5.688
2023-03-02T08:09:54.782Z,5.848
2023-03-02T08:10:54.764Z,6.014
2023-03-02T08:11:54.722Z,5.856
2023-03-02T08:12:54.714Z,5.840
2023-03-02T08:13:54.620Z,5.934
2023-03-02T08:14:54.654Z,6.070
2023-03-02T08:15:54.600Z,5.942
2023-03-02T08:16:53.789Z,6.043
2023-03-02T08:17:53.816Z,5.977
2023-03-02T08:18:54.772Z,5.851
2023-03-02T08:19:54.556Z,5.880
2023-03-02T08:20:54.593Z,6.027
2023-03-02T08:21:54.918Z,6.094
2023-03-02T08:22:54.635Z,6.142
2023-03-02T08:23:54.738Z,5.902
2023-03-02T08:24:54.723Z,5.774
2023-03-02T08:25:54.590Z,5.915
2023-03-02T08:26:54.386Z,6.147
2023-03-02T08:27:54.588Z,6.131
2023-03-02T08:28:54.553Z,5.971
2023-03-02T08:29:54.564Z,6.131
2023-03-02T08:30:54.526Z,6.126
2023-03-02T08:31:54.982Z,6.006
2023-03-02T08:32:54.422Z,6.081
2023-03-02T08:33:54.381Z,6.105
2023-03-02T08:34:54.427Z,6.348
2023-03-02T08:35:54.449Z,6.374
2023-03-02T08:36:54.630Z,6.316
2023-03-02T08:37:54.638Z,6.222
2023-03-02T08:38:54.619Z,6.241
2023-03-02T08:39:54.705Z,6.196
2023-03-02T08:40:53.918Z,6.348
2023-03-02T08:41:54.114Z,6.366
2023-03-02T08:42:54.080Z,6.382
2023-03-02T08:43:54.186Z,6.495
2023-03-02T08:44:54.280Z,6.228
2023-03-02T08:45:54.335Z,6.150
2023-03-02T08:46:54.444Z,6.019
2023-03-02T08:47:54.392Z,6.185
2023-03-02T08:48:54.369Z,6.313
2023-03-02T08:49:54.410Z,6.559
2023-03-02T08:50:54.389Z,6.302
2023-03-02T08:51:54.326Z,6.471
2023-03-02T08:52:54.281Z,6.775
2023-03-02T08:53:54.293Z,6.623
2023-03-02T08:54:54.388Z,6.487
2023-03-02T08:55:54.769Z,6.257
2023-03-02T08:56:54.914Z,6.513
2023-03-02T08:57:53.948Z,6.612
2023-03-02T08:58:53.913Z,6.941
2023-03-02T08:59:53.939Z,6.842
2023-03-02T09:00:53.973Z,6.759
2023-03-02T09:01:54.807Z,6.730
2023-03-02T09:02:54.743Z,6.730
2023-03-02T09:03:54.714Z,6.943
2023-03-02T09:04:54.053Z,6.938
2023-03-02T09:05:54.275Z,6.866
2023-03-02T09:06:54.174Z,7.029
2023-03-02T09:07:54.135Z,7.168
2023-03-02T09:08:54.082Z,7.119
2023-03-02T09:09:54.102Z,6.991
2023-03-02T09:10:54.105Z,7.141
2023-03-02T09:11:54.043Z,7.186
2023-03-02T09:12:53.965Z,7.368
2023-03-02T09:13:53.934Z,7.419
2023-03-02T09:14:53.945Z,7.443
2023-03-02T09:15:53.958Z,7.501
2023-03-02T09:16:54.282Z,7.443
2023-03-02T09:17:54.305Z,7.424
2023-03-02T09:18:54.279Z,7.443
2023-03-02T09:19:54.261Z,7.675
2023-03-02T09:20:54.229Z,7.710
2023-03-02T09:21:54.169Z,7.595
2023-03-02T09:22:54.052Z,7.867
2023-03-02T09:23:54.055Z,8.038
2023-03-02T09:24:54.209Z,8.113
2023-03-02T09:25:54.168Z,8.142
2023-03-02T09:26:54.119Z,7.947
2023-03-02T09:27:54.095Z,7.867
2023-03-02T09:28:54.130Z,7.734
2023-03-02T09:29:54.106Z,7.531
2023-03-02T09:30:54.053Z,7.472
2023-03-02T09:31:55.036Z,7.822
2023-03-02T09:32:54.844Z,7.838
2023-03-02T09:33:54.159Z,7.910
2023-03-02T09:34:54.087Z,7.982
2023-03-02T09:35:54.022Z,8.281
2023-03-02T09:36:53.992Z,8.292
2023-03-02T09:37:54.010Z,8.375
2023-03-02T09:38:54.186Z,8.505
2023-03-02T09:39:54.280Z,8.465
2023-03-02T09:40:54.313Z,8.644
2023-03-02T09:41:54.380Z,8.983
2023-03-02T09:42:59.241Z,8.684
2023-03-02T09:43:54.205Z,8.893
2023-03-02T09:44:54.205Z,8.684
2023-03-02T09:45:54.267Z,9.050
2023-03-02T09:46:54.437Z,9.256
2023-03-02T09:47:54.581Z,9.197
2023-03-02T09:48:54.557Z,9.202
2023-03-02T09:49:54.484Z,9.031
2023-03-02T09:50:54.356Z,8.561
2023-03-02T09:51:54.325Z,8.698
2023-03-02T09:52:54.343Z,8.879
2023-03-02T09:53:54.268Z,8.871
2023-03-02T09:54:54.422Z,8.788
2023-03-02T09:55:54.469Z,8.917
2023-03-02T09:56:54.456Z,8.746
2023-03-02T09:57:54.461Z,8.631
2023-03-02T09:58:54.410Z,8.858
2023-03-02T09:59:54.378Z,9.160
2023-03-02T10:00:54.442Z,9.365
2023-03-02T10:01:54.762Z,9.197
2023-03-02T10:02:54.065Z,9.037
2023-03-02T10:03:54.375Z,8.700
2023-03-02T10:04:53.905Z,8.610
2023-03-02T10:05:53.962Z,8.735
2023-03-02T10:06:53.910Z,9.128
2023-03-02T10:07:53.905Z,9.144
2023-03-02T10:08:54.184Z,9.341
2023-03-02T10:09:54.153Z,9.523
2023-03-02T10:10:54.205Z,9.021
2023-03-02T10:11:54.139Z,9.146
2023-03-02T10:12:54.126Z,9.488
2023-03-02T10:13:54.183Z,9.667
2023-03-02T10:14:54.183Z,9.680
2023-03-02T10:15:54.234Z,10.027
2023-03-02T10:16:55.077Z,10.022
2023-03-02T10:17:54.119Z,9.592
2023-03-02T10:18:54.232Z,9.403
2023-03-02T10:19:54.305Z,9.694
2023-03-02T10:20:54.319Z,9.093
2023-03-02T10:21:54.276Z,9.459
2023-03-02T10:22:54.278Z,9.598
2023-03-02T10:23:54.303Z,9.635
2023-03-02T10:24:54.296Z,9.710
2023-03-02T10:25:54.231Z,9.568
2023-03-02T10:26:54.244Z,9.582
2023-03-02T10:27:54.417Z,9.923
2023-03-02T10:28:54.530Z,9.918
2023-03-02T10:29:54.486Z,10.527
2023-03-02T10:30:54.508Z,10.858
2023-03-02T10:31:53.811Z,10.727
2023-03-02T10:32:53.990Z,10.919
2023-03-02T10:33:53.927Z,10.863
2023-03-02T10:34:53.901Z,10.716
2023-03-02T10:35:54.187Z,10.423
2023-03-02T10:36:54.685Z,10.556
2023-03-02T10:37:54.677Z,10.634
2023-03-02T10:38:54.626Z,10.925
2023-03-02T10:39:54.605Z,11.125
2023-03-02T10:40:54.629Z,11.357
2023-03-02T10:41:54.611Z,10.746
2023-03-02T10:42:54.726Z,11.066
2023-03-02T10:43:54.692Z,11.045
2023-03-02T10:44:54.658Z,11.483
2023-03-02T10:45:54.701Z,11.763
2023-03-02T10:46:54.357Z,11.835
2023-03-02T10:47:54.353Z,11.429
2023-03-02T10:48:58.894Z,11.210
2023-03-02T10:49:54.742Z,11.397
2023-03-02T10:50:54.625Z,11.670
2023-03-02T10:51:54.754Z,11.614
2023-03-02T10:52:59.855Z,11.315
2023-03-02T10:53:54.396Z,10.837
2023-03-02T10:54:54.386Z,11.064
2023-03-02T10:55:54.310Z,10.951
2023-03-02T10:56:54.246Z,10.610
2023-03-02T10:57:54.211Z,10.586
2023-03-02T10:58:55.663Z,10.460
2023-03-02T10:59:54.394Z,10.580
2023-03-02T11:00:54.371Z,10.652
2023-03-02T11:01:54.446Z,10.922
2023-03-02T11:02:54.526Z,11.189
2023-03-02T11:03:54.464Z,11.323
2023-03-02T11:04:57.004Z,11.355
2023-03-02T11:05:54.408Z,11.336
2023-03-02T11:06:54.536Z,10.730
2023-03-02T11:07:54.530Z,11.125
2023-03-02T11:08:54.428Z,10.762
2023-03-02T11:09:54.381Z,10.719
2023-03-02T11:10:55.691Z,10.746
2023-03-02T11:11:54.307Z,10.834
2023-03-02T11:12:54.479Z,10.797
2023-03-02T11:13:54.448Z,11.088
2023-03-02T11:14:54.435Z,11.534
2023-03-02T11:15:54.454Z,11.485
2023-03-02T11:16:54.676Z,11.240
2023-03-02T11:17:53.812Z,10.858
2023-03-02T11:18:53.794Z,10.802
2023-03-02T11:19:54.725Z,10.805
2023-03-02T11:20:54.687Z,10.583
2023-03-02T11:21:54.688Z,10.425
2023-03-02T11:22:54.622Z,10.671
2023-03-02T11:23:54.642Z,10.906
2023-03-02T11:24:54.645Z,11.221
2023-03-02T11:25:54.568Z,11.416
2023-03-02T11:26:54.546Z,11.931
2023-03-02T11:27:54.496Z,11.793
2023-03-02T11:28:54.539Z,11.899
2023-03-02T11:29:54.494Z,12.241
2023-03-02T11:30:54.467Z,12.289
2023-03-02T11:31:55.232Z,12.436
2023-03-02T11:32:54.682Z,12.116
2023-03-02T11:33:54.004Z,12.156
2023-03-02T11:34:54.272Z,11.720
2023-03-02T11:35:54.106Z,11.651
2023-03-02T11:36:54.282Z,12.041
2023-03-02T11:37:54.265Z,12.044
2023-03-02T11:38:54.157Z,12.094
2023-03-02T11:39:58.883Z,11.793
2023-03-02T11:40:53.773Z,12.062
2023-03-02T11:41:54.806Z,12.738
2023-03-02T11:42:54.138Z,12.802
2023-03-02T11:43:54.017Z,12.535
2023-03-02T11:44:54.002Z,12.855
2023-03-02T11:45:54.534Z,12.425
2023-03-02T11:48:02.278Z,12.967
2023-03-02T11:48:56.206Z,12.716
2023-03-02T11:49:56.147Z,12.807
2023-03-02T11:50:56.072Z,13.235
2023-03-02T11:52:01.026Z,13.368
2023-03-02T11:52:55.963Z,12.431
2023-03-02T11:53:56.203Z,12.244
2023-03-02T11:54:56.390Z,11.744
2023-03-02T11:55:56.432Z,11.704
2023-03-02T11:56:56.468Z,12.014
2023-03-02T11:57:57.522Z,12.329
2023-03-02T11:58:56.522Z,11.627
2023-03-02T11:59:56.784Z,11.977
2023-03-02T12:00:56.801Z,12.481
2023-03-02T12:01:56.139Z,12.602
2023-03-02T12:02:55.954Z,12.289
2023-03-02T12:03:55.965Z,12.610
2023-03-02T12:04:55.954Z,12.839
2023-03-02T12:05:56.108Z,12.658
2023-03-02T12:06:55.988Z,12.463
2023-03-02T12:07:55.946Z,12.188
2023-03-02T12:08:55.949Z,11.910
2023-03-02T12:09:56.337Z,11.723
2023-03-02T12:10:56.335Z,11.734
2023-03-02T12:11:56.344Z,11.873
2023-03-02T12:12:56.369Z,11.977
2023-03-02T12:13:56.369Z,12.532
2023-03-02T12:14:56.317Z,12.759
2023-03-02T12:15:56.200Z,12.992
2023-03-02T12:16:56.399Z,12.927
2023-03-02T12:17:56.495Z,12.100
2023-03-02T12:18:56.558Z,12.006
2023-03-02T12:19:56.566Z,12.132
2023-03-02T12:20:56.517Z,12.241
2023-03-02T12:21:56.373Z,12.153
2023-03-02T12:22:56.271Z,12.396
2023-03-02T12:23:56.552Z,12.481
2023-03-02T12:24:56.551Z,12.727
2023-03-02T12:25:56.467Z,12.866
2023-03-02T12:26:56.416Z,12.938
2023-03-02T12:27:56.462Z,12.893
2023-03-02T12:28:57.805Z,13.106
2023-03-02T12:29:55.984Z,12.978
2023-03-02T12:30:56.062Z,12.855
2023-03-02T12:31:56.376Z,13.042
2023-03-02T12:32:56.766Z,12.853
2023-03-02T12:33:56.637Z,13.072
2023-03-02T12:34:56.651Z,12.578
2023-03-02T12:35:56.745Z,12.548
2023-03-02T12:36:56.719Z,12.164
2023-03-02T12:37:56.761Z,12.607
2023-03-02T12:38:56.133Z,12.850
2023-03-02T12:39:56.101Z,13.152
2023-03-02T12:40:56.026Z,13.122